createdAt,value
2019-04-14T00:00:36.907Z,96872.38
2019-04-14T00:04:40.462Z,96864.42
2019-04-14T00:08:43.628Z,96860.84
2019-04-14T00:12:46.762Z,96856.78
2019-04-14T00:16:49.068Z,96862.09
2019-04-14T00:20:51.271Z,96858.44
2019-04-14T00:24:53.297Z,96858.77
2019-04-14T00:28:57.911Z,96859.04
2019-04-14T00:33:04.398Z,96858.66
2019-04-14T00:37:14.091Z,96858.03
2019-04-14T00:41:18.036Z,96864.22
2019-04-14T00:45:34.927Z,96863.36
2019-04-14T00:49:25.411Z,96861.42
2019-04-14T00:53:27.536Z,96859.23
2019-04-14T00:57:29.421Z,96857.62
2019-04-14T01:01:31.345Z,96850.98
2019-04-14T01:05:34.536Z,96847.10
2019-04-14T01:09:37.018Z,96846.83
2019-04-14T01:13:39.746Z,96850.50
2019-04-14T01:17:41.851Z,96848.25
2019-04-14T01:21:43.727Z,96849.70
2019-04-14T01:25:45.645Z,96850.22
2019-04-14T01:29:47.552Z,96854.77
2019-04-14T01:33:49.449Z,96846.31
2019-04-14T01:37:51.359Z,96846.97
2019-04-14T01:41:54.291Z,96852.03
2019-04-14T01:46:05.270Z,96857.77
2019-04-14T01:49:59.994Z,96860.52
2019-04-14T01:54:15.453Z,96863.00
2019-04-14T01:58:19.070Z,96865.22
2019-04-14T02:02:22.734Z,96866.55
2019-04-14T02:06:24.712Z,96858.75
2019-04-14T02:10:27.954Z,96860.08
2019-04-14T02:14:30.182Z,96858.80
2019-04-14T02:18:34.081Z,96859.46
2019-04-14T02:22:36.045Z,96850.00
2019-04-14T02:26:39.322Z,96854.58
2019-04-14T02:30:53.934Z,96861.25
2019-04-14T02:35:16.702Z,96775.61
2019-04-14T02:43:25.425Z,96854.63
2019-04-14T02:55:34.097Z,96835.31
2019-04-14T02:59:39.121Z,96850.45
2019-04-14T03:03:41.551Z,96861.83
2019-04-14T03:07:48.225Z,96860.53
2019-04-14T03:11:45.896Z,96868.68
2019-04-14T03:15:57.386Z,96861.52
2019-04-14T03:20:07.055Z,96856.97
2019-04-14T03:24:07.064Z,96854.85
2019-04-14T03:28:38.433Z,96856.62
2019-04-14T03:44:42.054Z,96866.08
2019-04-14T03:53:09.577Z,96868.02
2019-04-14T03:56:53.567Z,96863.79
2019-04-14T04:00:55.717Z,96868.83
2019-04-14T04:04:57.770Z,96866.59
2019-04-14T04:08:59.736Z,96866.73
2019-04-14T04:13:12.593Z,96866.11
2019-04-14T04:17:23.222Z,96867.73
2019-04-14T04:21:24.948Z,96866.60
2019-04-14T04:25:37.871Z,96870.65
2019-04-14T04:29:41.970Z,96877.84
2019-04-14T04:33:45.805Z,96884.84
2019-04-14T04:37:52.351Z,96889.06
2019-04-14T04:41:54.281Z,96886.80
2019-04-14T04:45:56.487Z,96895.42
2019-04-14T04:49:58.403Z,96893.95
2019-04-14T04:54:01.607Z,96894.10
2019-04-14T04:58:03.643Z,96898.00
2019-04-14T05:02:05.565Z,96898.83
2019-04-14T05:06:48.342Z,96910.07
2019-04-14T05:10:52.457Z,96907.95
2019-04-14T05:15:00.725Z,96911.86
2019-04-14T05:19:14.020Z,96910.86
2019-04-14T05:23:06.465Z,96909.71
2019-04-14T05:27:08.388Z,96920.14
2019-04-14T05:31:10.291Z,96920.78
2019-04-14T05:35:12.203Z,96925.84
2019-04-14T05:39:14.122Z,96932.47
2019-04-14T05:43:28.279Z,96927.58
2019-04-14T05:47:19.810Z,96924.80
2019-04-14T05:51:23.268Z,96935.70
2019-04-14T05:55:26.312Z,96938.59
2019-04-14T05:59:28.590Z,96933.50
2019-04-14T06:03:32.048Z,96932.18
2019-04-14T06:07:35.021Z,96940.95
2019-04-14T06:11:37.015Z,96958.70
2019-04-14T06:15:38.931Z,96957.03
2019-04-14T06:19:42.090Z,96957.31
2019-04-14T06:23:44.003Z,96954.04
2019-04-14T06:27:45.911Z,96956.16
2019-04-14T06:32:04.180Z,96957.28
2019-04-14T06:36:11.795Z,96959.26
2019-04-14T06:40:13.709Z,96958.91
2019-04-14T06:44:15.622Z,96954.45
2019-04-14T06:48:17.548Z,96862.18
2019-04-14T06:52:19.477Z,96952.77
2019-04-14T06:56:21.377Z,96959.89
2019-04-14T07:00:23.282Z,96958.73
2019-04-14T07:04:25.295Z,96966.72
2019-04-14T07:08:29.788Z,96964.44
2019-04-14T07:12:30.824Z,96959.48
2019-04-14T07:16:35.127Z,96959.41
2019-04-14T07:20:38.078Z,96946.33
2019-04-14T07:24:40.084Z,96958.30
2019-04-14T07:28:42.171Z,96965.56
2019-04-14T07:32:49.362Z,96958.55
2019-04-14T07:36:58.763Z,96959.28
2019-04-14T07:41:08.198Z,96962.21
2019-04-14T07:45:14.905Z,96956.31
2019-04-14T07:49:34.759Z,96945.86
2019-04-14T07:53:38.388Z,96941.45
2019-04-14T07:57:44.980Z,96949.44
2019-04-14T08:01:57.672Z,96945.09
2019-04-14T08:05:59.596Z,96944.97
2019-04-14T08:10:01.707Z,96937.66
2019-04-14T08:14:05.499Z,96943.23
2019-04-14T08:18:07.366Z,96941.27
2019-04-14T08:22:09.276Z,96947.58
2019-04-14T08:26:11.198Z,96950.70
2019-04-14T08:30:13.266Z,96949.11
2019-04-14T08:34:15.175Z,96951.44
2019-04-14T08:38:17.074Z,96952.37
2019-04-14T08:42:20.628Z,96949.11
2019-04-14T08:46:31.205Z,96938.44
2019-04-14T08:50:40.940Z,96937.53
2019-04-14T08:54:44.503Z,96940.64
2019-04-14T08:59:06.229Z,96940.79
2019-04-14T09:03:11.838Z,96937.31
2019-04-14T09:07:18.300Z,96934.64
2019-04-14T09:11:30.578Z,96936.02
2019-04-14T09:15:32.581Z,96929.70
2019-04-14T09:19:34.492Z,96921.52
2019-04-14T09:23:36.404Z,96924.75
2019-04-14T09:27:56.620Z,96919.88
2019-04-14T09:32:00.049Z,96915.78
2019-04-14T09:36:02.213Z,96921.34
2019-04-14T09:40:04.554Z,96921.84
2019-04-14T09:44:06.578Z,96922.42
2019-04-14T09:48:08.492Z,96924.61
2019-04-14T09:52:10.417Z,96920.02
2019-04-14T09:56:12.294Z,96923.08
2019-04-14T10:00:15.991Z,96914.57
2019-04-14T10:04:17.894Z,96908.92
2019-04-14T10:08:19.835Z,96907.25
2019-04-14T10:12:21.806Z,96908.94
2019-04-14T10:16:23.721Z,96911.60
2019-04-14T10:20:25.621Z,96903.62
2019-04-14T10:24:27.730Z,96902.23
2019-04-14T10:28:29.632Z,96896.27
2019-04-14T10:32:31.542Z,96898.13
2019-04-14T10:36:33.558Z,96896.98
2019-04-14T10:40:35.461Z,96892.70
2019-04-14T10:44:37.395Z,96885.27
2019-04-14T10:48:58.079Z,96891.94
2019-04-14T10:52:59.983Z,96895.83
2019-04-14T10:57:02.187Z,96885.39
2019-04-14T11:01:05.436Z,96879.86
2019-04-14T11:05:08.971Z,96883.92
2019-04-14T11:09:16.868Z,96877.23
2019-04-14T11:13:18.775Z,96871.31
2019-04-14T11:17:21.639Z,96873.23
2019-04-14T11:21:23.546Z,96875.79
2019-04-14T11:25:25.478Z,96865.98
2019-04-14T11:29:27.372Z,96870.45
2019-04-14T11:33:33.796Z,96878.00
2019-04-14T11:37:53.844Z,96874.52
2019-04-14T11:41:55.758Z,96876.92
2019-04-14T11:45:57.738Z,96880.92
2019-04-14T11:49:59.689Z,96875.87
2019-04-14T11:54:02.673Z,96883.92
2019-04-14T11:58:04.582Z,96897.52
2019-04-14T12:02:20.391Z,96907.22
2019-04-14T12:06:33.123Z,96908.38
2019-04-14T12:10:36.108Z,96901.97
2019-04-14T12:14:38.092Z,96906.06
2019-04-14T12:18:52.739Z,96898.70
2019-04-14T12:22:54.649Z,96913.41
2019-04-14T12:26:56.550Z,96907.39
2019-04-14T12:30:59.684Z,96905.34
2019-04-14T12:35:01.710Z,96917.53
2019-04-14T12:39:07.639Z,96906.91
2019-04-14T12:43:11.182Z,96908.69
2019-04-14T12:47:29.929Z,96913.81
2019-04-14T12:51:42.394Z,96922.06
2019-04-14T12:55:44.317Z,96914.58
2019-04-14T12:59:46.245Z,96915.95
2019-04-14T13:03:48.143Z,96922.40
2019-04-14T13:07:50.186Z,96922.23
2019-04-14T13:11:52.239Z,96933.38
2019-04-14T13:15:54.172Z,96942.16
2019-04-14T13:19:56.075Z,96951.36
2019-04-14T13:23:57.971Z,96948.17
2019-04-14T13:27:59.883Z,96950.69
2019-04-14T13:32:02.942Z,96951.94
2019-04-14T13:36:05.188Z,96947.89
2019-04-14T13:40:07.510Z,96959.59
2019-04-14T13:44:09.407Z,96878.82
2019-04-14T13:48:11.317Z,96962.62
2019-04-14T13:52:13.323Z,96974.57
2019-04-14T13:56:15.243Z,96974.68
2019-04-14T14:00:18.071Z,96973.66
2019-04-14T14:04:19.969Z,96974.83
2019-04-14T14:08:21.897Z,96969.20
2019-04-14T14:12:41.532Z,96971.85
2019-04-14T14:17:00.056Z,96972.16
2019-04-14T14:21:06.430Z,96979.34
2019-04-14T14:25:11.161Z,96982.10
2019-04-14T14:29:13.295Z,96983.42
2019-04-14T14:33:15.196Z,96982.42
2019-04-14T14:37:17.105Z,96982.62
2019-04-14T14:41:19.094Z,96983.77
2019-04-14T14:45:26.487Z,96989.83
2019-04-14T14:49:31.125Z,96994.09
2019-04-14T14:53:33.107Z,96996.34
2019-04-14T14:57:35.078Z,96998.75
2019-04-14T15:01:36.995Z,97001.68
2019-04-14T15:05:38.922Z,97005.84
2019-04-14T15:09:40.819Z,97002.98
2019-04-14T15:13:42.733Z,96998.84
2019-04-14T15:17:44.640Z,96999.06
2019-04-14T15:21:46.550Z,97013.73
2019-04-14T15:25:48.454Z,97008.38
2019-04-14T15:30:10.816Z,97009.76
2019-04-14T15:34:31.498Z,97012.17
2019-04-14T15:38:48.248Z,97006.41
2019-04-14T15:42:50.115Z,97013.37
2019-04-14T15:46:52.012Z,97023.17
2019-04-14T15:50:53.919Z,97024.48
2019-04-14T15:54:55.809Z,97035.09
2019-04-14T15:59:02.070Z,97028.52
2019-04-14T16:03:20.983Z,97039.55
2019-04-14T16:07:24.529Z,96957.56
2019-04-14T16:11:46.551Z,97040.11
2019-04-14T16:16:07.929Z,97044.39
2019-04-14T16:20:14.696Z,97045.77
2019-04-14T16:24:16.604Z,97038.08
2019-04-14T16:28:20.160Z,97031.91
2019-04-14T16:32:38.380Z,97047.59
2019-04-14T16:36:41.361Z,97051.41
2019-04-14T16:40:43.269Z,97049.81
2019-04-14T16:44:45.347Z,97061.33
2019-04-14T16:48:47.254Z,97063.84
2019-04-14T16:52:50.804Z,97072.06
2019-04-14T16:56:54.352Z,97066.55
2019-04-14T17:01:17.225Z,97074.22
2019-04-14T17:05:19.207Z,97075.02
2019-04-14T17:09:21.121Z,97073.53
2019-04-14T17:13:24.756Z,97081.30
2019-04-14T17:17:44.269Z,97086.80
2019-04-14T17:21:50.539Z,97081.65
2019-04-14T17:26:12.265Z,97073.82
2019-04-14T17:30:16.112Z,97075.32
2019-04-14T17:34:25.362Z,97093.95
2019-04-14T17:38:40.169Z,97098.27
2019-04-14T17:42:52.922Z,97106.16
2019-04-14T17:46:57.540Z,97105.41
2019-04-14T17:51:03.456Z,97115.67
2019-04-14T17:55:16.688Z,97123.62
2019-04-14T17:59:26.159Z,97133.12
2019-04-14T18:03:32.397Z,97140.71
2019-04-14T18:07:35.940Z,97146.79
2019-04-14T18:11:41.907Z,97152.55
2019-04-14T18:15:51.419Z,97164.78
2019-04-14T18:19:54.971Z,97169.27
2019-04-14T18:23:56.861Z,97175.96
2019-04-14T18:28:09.145Z,97183.39
2019-04-14T18:32:12.708Z,97187.75
2019-04-14T18:36:34.583Z,97195.72
2019-04-14T18:40:39.210Z,97195.92
2019-04-14T18:44:43.971Z,97208.03
2019-04-14T18:48:50.481Z,97205.66
2019-04-14T18:53:10.250Z,97214.48
2019-04-14T18:57:13.798Z,97212.05
2019-04-14T19:01:17.343Z,97224.13
2019-04-14T19:05:19.240Z,97230.25
2019-04-14T19:09:21.176Z,97234.56
2019-04-14T19:13:30.802Z,97237.27
2019-04-14T19:17:38.610Z,97240.23
2019-04-14T19:21:40.618Z,97251.48
2019-04-14T19:25:42.679Z,97251.99
2019-04-14T19:29:44.591Z,97255.49
2019-04-14T19:33:49.827Z,97261.30
2019-04-14T19:37:51.743Z,97260.49
2019-04-14T19:41:53.664Z,97265.69
2019-04-14T19:45:56.552Z,97269.50
2019-04-14T19:49:58.619Z,97273.22
2019-04-14T19:54:00.604Z,97277.13
2019-04-14T19:58:02.519Z,97276.37
2019-04-14T20:02:04.504Z,97283.31
2019-04-14T20:06:06.569Z,97281.33
2019-04-14T20:10:10.129Z,97286.90
2019-04-14T20:14:12.188Z,97291.52
2019-04-14T20:18:24.700Z,97284.38
2019-04-14T20:22:28.250Z,97289.50
2019-04-14T20:26:31.939Z,97299.77
2019-04-14T20:30:41.637Z,97296.00
2019-04-14T20:34:43.599Z,97298.95
2019-04-14T20:38:45.460Z,97301.91
2019-04-14T20:42:48.342Z,97302.65
2019-04-14T20:46:50.340Z,97298.89
2019-04-14T20:50:52.239Z,97299.03
2019-04-14T20:54:54.128Z,97304.98
2019-04-14T20:58:56.040Z,97302.10
2019-04-14T21:03:14.496Z,97310.34
2019-04-14T21:07:53.304Z,97304.66
2019-04-14T21:12:13.580Z,97312.23
2019-04-14T21:16:32.365Z,97311.61
2019-04-14T21:20:44.899Z,97319.86
2019-04-14T21:25:04.486Z,97318.41
2019-04-14T21:29:10.976Z,97322.03
2019-04-14T21:33:17.508Z,97323.77
2019-04-14T21:37:21.045Z,97324.85
2019-04-14T21:41:24.603Z,97325.67
2019-04-14T21:45:26.516Z,97315.91
2019-04-14T21:49:28.428Z,97314.41
2019-04-14T21:53:30.353Z,97318.35
2019-04-14T21:57:39.405Z,97315.79
2019-04-14T22:01:59.354Z,97324.85
2019-04-14T22:06:12.068Z,97327.55
2019-04-14T22:10:16.746Z,97332.53
2019-04-14T22:14:18.650Z,97334.47
2019-04-14T22:18:20.561Z,97338.67
2019-04-14T22:22:22.474Z,97343.01
2019-04-14T22:26:26.192Z,97343.73
2019-04-14T22:30:28.037Z,97345.86
2019-04-14T22:34:29.979Z,97347.80
2019-04-14T22:38:31.916Z,97348.49
2019-04-14T22:42:33.854Z,97351.67
2019-04-14T22:46:35.758Z,97348.89
2019-04-14T22:50:37.691Z,97346.48
2019-04-14T22:54:39.606Z,97345.44
2019-04-14T22:58:42.804Z,97352.27
2019-04-14T23:02:46.288Z,97348.63
2019-04-14T23:07:05.969Z,97355.45
2019-04-14T23:11:09.503Z,97350.36
2019-04-14T23:15:31.485Z,97355.39
2019-04-14T23:19:58.244Z,97353.38
2019-04-14T23:24:16.546Z,97356.90
2019-04-14T23:28:18.456Z,97362.88
2019-04-14T23:32:20.434Z,97356.70
2019-04-14T23:36:22.356Z,97352.43
2019-04-14T23:40:24.266Z,97350.30
2019-04-14T23:44:26.197Z,97357.33
2019-04-14T23:48:28.104Z,97358.50
2019-04-14T23:52:30.002Z,97367.56
2019-04-14T23:56:31.923Z,97363.30
